Time;durP1;ratioP1;P1;durP2;ratioP2;P2;SDS_P1;SDS_P2;PMS_P1;PMS_P2;Temp;Humidity;BMP_temperature;BMP_pressure;BME280_temperature;BME280_humidity;BME280_pressure;Samples;Min_cycle;Max_cycle;Signal;HPM_P1;HPM_P2
2022/03/25 00:00:27;;;;;;;103.70;47.25;;;10.50;50.30;;;;;;9181587;19;20015;-68
2022/03/25 00:03:32;;;;;;;87.78;42.70;;;10.50;50.60;;;;;;9185829;19;20021;-67
2022/03/25 00:06:38;;;;;;;89.43;44.58;;;10.40;50.60;;;;;;9184082;19;20019;-66
2022/03/25 00:09:43;;;;;;;97.55;44.60;;;10.40;50.70;;;;;;9183325;19;20023;-65
2022/03/25 00:12:48;;;;;;;95.38;47.13;;;10.40;50.90;;;;;;9186056;19;20723;-66
2022/03/25 00:15:56;;;;;;;92.57;45.53;;;10.30;50.90;;;;;;9183424;19;20022;-68
2022/03/25 00:19:03;;;;;;;95.95;46.53;;;10.30;51.10;;;;;;9178574;19;20022;-67
2022/03/25 00:22:08;;;;;;;94.88;45.35;;;10.20;51.10;;;;;;9181371;19;20023;-64
2022/03/25 00:25:13;;;;;;;89.47;45.55;;;10.20;51.20;;;;;;9182575;19;20836;-64
2022/03/25 00:28:20;;;;;;;99.35;47.35;;;10.10;51.30;;;;;;9183073;19;20014;-66
2022/03/25 00:31:28;;;;;;;100.78;46.97;;;10.10;51.40;;;;;;9183454;19;20025;-69
2022/03/25 00:34:33;;;;;;;90.93;46.15;;;10.00;51.50;;;;;;9184564;19;20015;-68
2022/03/25 00:37:38;;;;;;;107.72;47.53;;;10.00;51.50;;;;;;9182577;19;20429;-66
2022/03/25 00:40:44;;;;;;;104.03;48.33;;;9.90;52.20;;;;;;9178839;19;20006;-68
2022/03/25 00:43:49;;;;;;;96.13;48.97;;;9.90;51.70;;;;;;9181016;19;20029;-68
2022/03/25 00:46:57;;;;;;;99.38;47.63;;;9.80;51.80;;;;;;9183404;19;20029;-64
2022/03/25 00:50:02;;;;;;;105.55;49.85;;;9.80;51.90;;;;;;9183846;19;20018;-66
2022/03/25 00:53:07;;;;;;;92.43;47.28;;;9.80;52.60;;;;;;9180976;19;20015;-68
2022/03/25 00:56:12;;;;;;;103.78;49.17;;;9.70;52.10;;;;;;9181549;19;20015;-66
2022/03/25 00:59:17;;;;;;;103.78;49.72;;;9.70;52.20;;;;;;9180275;19;20021;-64
2022/03/25 01:02:25;;;;;;;100.68;50.58;;;9.60;52.30;;;;;;9182795;19;20019;-67
2022/03/25 01:05:31;;;;;;;98.97;48.25;;;9.60;52.50;;;;;;9180233;19;20023;-67
2022/03/25 01:08:36;;;;;;;106.63;48.80;;;9.60;52.50;;;;;;9179658;19;20468;-66
2022/03/25 01:11:41;;;;;;;109.00;51.25;;;9.50;52.50;;;;;;9179693;19;20018;-67
2022/03/25 01:14:46;;;;;;;99.32;50.58;;;9.50;52.60;;;;;;9180857;19;20052;-67
2022/03/25 01:17:54;;;;;;;98.78;49.72;;;9.40;52.60;;;;;;9181255;19;20095;-66
2022/03/25 01:21:00;;;;;;;107.65;50.47;;;9.40;52.90;;;;;;9174373;19;20033;-68
2022/03/25 01:24:05;;;;;;;96.03;49.30;;;9.40;52.90;;;;;;9182935;19;20086;-65
2022/03/25 01:27:11;;;;;;;103.13;49.83;;;9.30;52.90;;;;;;9180319;19;20018;-65
2022/03/25 01:30:16;;;;;;;102.90;50.03;;;9.30;53.00;;;;;;9180426;19;20081;-68
2022/03/25 01:33:24;;;;;;;108.15;51.17;;;9.30;53.10;;;;;;9181162;19;20494;-66
2022/03/25 01:36:30;;;;;;;98.82;48.78;;;9.20;53.20;;;;;;9179989;19;20018;-67
2022/03/25 01:39:35;;;;;;;101.93;50.97;;;9.20;53.20;;;;;;9177349;19;20078;-65
2022/03/25 01:42:42;;;;;;;107.47;50.15;;;9.20;53.30;;;;;;9179751;19;20030;-67
2022/03/25 01:45:48;;;;;;;105.55;51.05;;;9.10;53.30;;;;;;9180309;19;20478;-66
2022/03/25 01:48:57;;;;;;;105.72;50.00;;;9.10;54.00;;;;;;9180845;19;20022;-67
2022/03/25 01:52:05;;;;;;;102.43;51.83;;;9.10;53.60;;;;;;9180310;19;20022;-66
2022/03/25 01:55:18;;;;;;;109.18;52.28;;;9.00;53.50;;;;;;9178925;19;20019;-68
2022/03/25 01:58:23;;;;;;;105.85;51.22;;;9.00;53.70;;;;;;9180099;19;20018;-67
2022/03/25 02:01:29;;;;;;;102.55;50.53;;;9.00;53.60;;;;;;9175751;19;20340;-66
2022/03/25 02:04:37;;;;;;;101.78;50.80;;;8.90;53.70;;;;;;9180576;19;20011;-67
2022/03/25 02:07:43;;;;;;;103.10;51.65;;;8.90;53.80;;;;;;9179738;19;20022;-67
2022/03/25 02:10:48;;;;;;;102.70;49.78;;;8.80;53.80;;;;;;9178348;19;20022;-67
2022/03/25 02:13:57;;;;;;;99.40;50.30;;;8.80;53.90;;;;;;9179053;19;20029;-66
2022/03/25 02:17:02;;;;;;;114.18;52.90;;;8.80;54.00;;;;;;9178219;19;20052;-67
2022/03/25 02:20:12;;;;;;;115.57;51.63;;;8.70;54.00;;;;;;9173257;19;20018;-67
2022/03/25 02:23:21;;;;;;;116.82;53.72;;;8.70;54.30;;;;;;9177629;19;20025;-66
2022/03/25 02:26:27;;;;;;;113.03;50.83;;;8.70;54.30;;;;;;9177679;19;20023;-66
2022/03/25 02:29:33;;;;;;;107.00;51.88;;;8.60;54.20;;;;;;9177897;19;20479;-66
2022/03/25 02:32:40;;;;;;;114.75;53.40;;;8.60;54.30;;;;;;9178223;19;20508;-68
2022/03/25 02:35:46;;;;;;;107.05;50.38;;;8.60;54.30;;;;;;9177186;19;20015;-66
2022/03/25 02:38:54;;;;;;;110.68;52.88;;;8.50;54.40;;;;;;9177022;19;20372;-67
2022/03/25 02:42:00;;;;;;;114.53;52.67;;;8.50;54.50;;;;;;9177374;19;20043;-67
2022/03/25 02:45:06;;;;;;;109.10;53.72;;;8.40;54.40;;;;;;9177785;19;20037;-65
2022/03/25 02:48:12;;;;;;;107.65;53.95;;;8.40;54.60;;;;;;9177147;19;20037;-68
2022/03/25 02:51:17;;;;;;;110.63;53.15;;;8.30;54.60;;;;;;9176061;19;20015;-66
2022/03/25 02:54:24;;;;;;;112.22;53.42;;;8.30;54.70;;;;;;9176840;19;20037;-65
2022/03/25 02:57:30;;;;;;;108.60;53.03;;;8.30;54.90;;;;;;9177557;19;20936;-66
2022/03/25 03:00:42;;;;;;;119.50;54.38;;;8.20;54.80;;;;;;9176128;19;20471;-67
2022/03/25 03:03:47;;;;;;;108.20;52.85;;;8.20;55.00;;;;;;9177795;19;20015;-67
2022/03/25 03:06:52;;;;;;;118.90;54.15;;;8.10;55.00;;;;;;9177652;19;20015;-66
2022/03/25 03:10:00;;;;;;;119.72;54.63;;;8.10;55.10;;;;;;9176330;19;20344;-66
2022/03/25 03:13:05;;;;;;;110.47;54.33;;;8.00;55.20;;;;;;9173389;19;20015;-63
2022/03/25 03:16:10;;;;;;;115.30;55.97;;;8.00;55.20;;;;;;9179988;19;20014;-66
2022/03/25 03:19:15;;;;;;;114.82;55.35;;;8.00;55.30;;;;;;9172155;19;20048;-67
2022/03/25 03:22:20;;;;;;;114.38;54.33;;;8.00;55.50;;;;;;9177233;19;19998;-69
2022/03/25 03:25:28;;;;;;;115.75;53.83;;;7.90;55.60;;;;;;9178099;19;20026;-67
2022/03/25 03:28:34;;;;;;;117.07;55.95;;;7.80;55.70;;;;;;9177392;19;20037;-67
2022/03/25 03:31:39;;;;;;;115.70;58.50;;;7.90;55.80;;;;;;9177547;19;20014;-67
2022/03/25 03:34:44;;;;;;;121.50;54.97;;;7.80;55.80;;;;;;9179252;19;20017;-67
2022/03/25 03:37:49;;;;;;;121.43;58.38;;;7.80;55.90;;;;;;9184636;19;20018;-68
2022/03/25 03:40:56;;;;;;;127.75;60.13;;;7.80;56.00;;;;;;9181968;19;20381;-65
2022/03/25 03:44:01;;;;;;;116.30;56.30;;;7.70;56.10;;;;;;9185439;19;20018;-67
2022/03/25 03:47:07;;;;;;;112.93;54.13;;;7.70;56.10;;;;;;9185854;19;20015;-66
2022/03/25 03:50:15;;;;;;;124.43;56.85;;;7.70;56.20;;;;;;9182505;19;20014;-64
2022/03/25 03:53:20;;;;;;;118.88;55.72;;;7.60;56.30;;;;;;9186602;19;20021;-66
2022/03/25 03:56:27;;;;;;;118.13;57.42;;;7.60;56.30;;;;;;9184172;19;20014;-65
2022/03/25 03:59:32;;;;;;;117.00;58.45;;;7.60;56.50;;;;;;9186516;19;20344;-66
2022/03/25 04:02:38;;;;;;;121.78;56.17;;;7.60;56.50;;;;;;9185569;19;20019;-66
2022/03/25 04:05:43;;;;;;;121.28;58.60;;;7.60;56.60;;;;;;9185816;19;20501;-66
2022/03/25 04:08:48;;;;;;;120.47;55.70;;;7.50;56.60;;;;;;9182426;19;20517;-65
2022/03/25 04:11:55;;;;;;;122.88;57.03;;;7.50;56.70;;;;;;9185407;19;20015;-64
2022/03/25 04:15:01;;;;;;;119.63;57.83;;;7.50;56.90;;;;;;9183692;19;20014;-66
2022/03/25 04:18:06;;;;;;;126.43;58.03;;;7.50;56.80;;;;;;9185816;19;20022;-65
2022/03/25 04:21:11;;;;;;;125.78;58.95;;;7.50;56.90;;;;;;9177199;19;20025;-66
2022/03/25 04:24:16;;;;;;;115.70;55.88;;;7.40;56.90;;;;;;9185368;19;20026;-66
2022/03/25 04:27:23;;;;;;;119.82;57.78;;;7.40;56.90;;;;;;9183279;19;20019;-65
2022/03/25 04:30:30;;;;;;;115.50;56.63;;;7.40;57.10;;;;;;9184311;19;20022;-67
2022/03/25 04:33:36;;;;;;;120.65;58.10;;;7.30;57.00;;;;;;9183767;19;20046;-66
2022/03/25 04:36:42;;;;;;;115.68;54.67;;;7.30;57.10;;;;;;9182633;19;20033;-65
2022/03/25 04:39:47;;;;;;;110.95;53.75;;;7.30;57.10;;;;;;9181734;19;20018;-65
2022/03/25 04:42:55;;;;;;;110.20;53.38;;;7.30;57.20;;;;;;9185113;19;20026;-66
2022/03/25 04:46:00;;;;;;;118.47;56.30;;;7.30;57.30;;;;;;9181196;19;20015;-65
2022/03/25 04:49:08;;;;;;;118.78;57.42;;;7.20;57.30;;;;;;9184394;19;20359;-65
2022/03/25 04:52:13;;;;;;;111.18;53.92;;;7.20;57.30;;;;;;9183788;19;20790;-65
2022/03/25 04:55:19;;;;;;;115.60;53.78;;;7.20;57.30;;;;;;9183308;19;20021;-65
2022/03/25 04:58:27;;;;;;;131.70;56.35;;;7.10;57.40;;;;;;9181589;19;20022;-64
2022/03/25 05:01:32;;;;;;;117.30;53.40;;;7.10;57.50;;;;;;9180444;19;20034;-66
2022/03/25 05:04:37;;;;;;;107.03;52.03;;;7.10;57.60;;;;;;9180817;19;20028;-67
2022/03/25 05:07:44;;;;;;;114.60;54.13;;;7.00;57.50;;;;;;9182404;19;20014;-66
2022/03/25 05:10:49;;;;;;;111.43;52.72;;;7.00;57.60;;;;;;9183065;19;20356;-67
2022/03/25 05:14:08;;;;;;;113.10;53.42;;;6.90;57.60;;;;;;9180587;19;20010;-66
2022/03/25 05:17:13;;;;;;;103.88;51.60;;;6.90;57.70;;;;;;9182823;19;20021;-66
2022/03/25 05:20:19;;;;;;;102.45;52.10;;;6.90;57.70;;;;;;9177630;19;20010;-66
2022/03/25 05:23:25;;;;;;;115.78;52.67;;;6.80;57.70;;;;;;9178824;19;20037;-66
2022/03/25 05:26:29;;;;;;;113.53;55.85;;;6.80;57.80;;;;;;9180563;19;20792;-66
2022/03/25 05:29:37;;;;;;;114.78;54.20;;;6.80;57.80;;;;;;9182128;19;20011;-66
2022/03/25 05:32:42;;;;;;;135.32;58.13;;;6.70;58.00;;;;;;9180029;19;20025;-66
2022/03/25 05:35:52;;;;;;;118.15;54.88;;;6.70;57.90;;;;;;9182883;19;20011;-67
2022/03/25 05:38:57;;;;;;;114.35;55.28;;;6.70;58.00;;;;;;9180542;19;20021;-66
2022/03/25 05:42:02;;;;;;;112.70;53.35;;;6.60;58.10;;;;;;9178478;19;20026;-65
2022/03/25 05:45:12;;;;;;;114.78;54.75;;;6.60;58.10;;;;;;9181391;19;20018;-67
2022/03/25 05:48:17;;;;;;;75.97;39.15;;;6.60;58.20;;;;;;9181073;19;20444;-64
2022/03/25 05:51:22;;;;;;;64.78;36.53;;;6.50;58.10;;;;;;9179976;19;20015;-66
2022/03/25 05:54:26;;;;;;;61.58;34.05;;;6.50;58.10;;;;;;9180941;19;20015;-65
2022/03/25 05:57:32;;;;;;;58.85;33.15;;;6.50;58.20;;;;;;9178042;19;20019;-65
2022/03/25 06:00:40;;;;;;;57.00;33.08;;;6.40;58.20;;;;;;9179749;19;20341;-66
2022/03/25 06:03:45;;;;;;;65.55;33.60;;;6.40;58.20;;;;;;9180239;19;20025;-65
2022/03/25 06:06:51;;;;;;;61.17;34.00;;;6.30;58.10;;;;;;9180566;19;20082;-66
2022/03/25 06:09:58;;;;;;;66.15;37.20;;;6.20;58.10;;;;;;9177259;19;20019;-66
2022/03/25 06:13:04;;;;;;;66.38;34.88;;;6.20;58.20;;;;;;9178751;19;20495;-65
2022/03/25 06:16:12;;;;;;;63.22;35.10;;;6.20;58.30;;;;;;9178657;19;20018;-65
2022/03/25 06:19:17;;;;;;;61.42;33.35;;;6.10;58.40;;;;;;9172765;19;20023;-65
2022/03/25 06:22:24;;;;;;;59.15;33.58;;;6.00;58.30;;;;;;9177036;19;20427;-66
2022/03/25 06:25:29;;;;;;;61.28;33.95;;;6.00;58.40;;;;;;9179194;19;20077;-67
2022/03/25 06:28:35;;;;;;;65.75;35.58;;;6.00;58.70;;;;;;9179549;19;20014;-65
2022/03/25 06:31:42;;;;;;;63.10;35.33;;;5.90;58.60;;;;;;9177987;19;20043;-65
2022/03/25 06:34:47;;;;;;;59.88;33.13;;;5.90;58.70;;;;;;9178115;19;20022;-65
2022/03/25 06:37:53;;;;;;;58.33;33.47;;;5.80;58.60;;;;;;9178388;19;20022;-65
2022/03/25 06:40:59;;;;;;;57.22;32.80;;;5.80;58.70;;;;;;9179400;19;20132;-66
2022/03/25 06:44:05;;;;;;;65.25;34.83;;;5.80;58.70;;;;;;9178014;19;20019;-65
2022/03/25 06:47:12;;;;;;;64.72;36.13;;;5.80;58.80;;;;;;9178146;19;20015;-67
2022/03/25 06:50:19;;;;;;;60.75;34.08;;;5.70;59.00;;;;;;9177799;19;20023;-65
2022/03/25 06:53:24;;;;;;;55.10;32.53;;;5.70;59.00;;;;;;9178798;19;20014;-66
2022/03/25 06:56:30;;;;;;;59.00;34.25;;;5.70;59.10;;;;;;9177879;19;20356;-68
2022/03/25 06:59:36;;;;;;;59.85;33.67;;;5.60;59.00;;;;;;9179491;19;20027;-68
2022/03/25 07:02:45;;;;;;;62.72;34.58;;;5.60;59.10;;;;;;9175155;19;20374;-66
2022/03/25 07:05:52;;;;;;;65.03;36.50;;;5.60;59.30;;;;;;9177317;19;20029;-66
2022/03/25 07:08:59;;;;;;;77.55;37.53;;;5.60;59.30;;;;;;9176812;19;20383;-68
2022/03/25 07:12:05;;;;;;;65.07;35.97;;;5.50;59.40;;;;;;9184947;19;20014;-66
2022/03/25 07:15:12;;;;;;;77.05;37.35;;;5.60;59.50;;;;;;9186161;19;20021;-62
2022/03/25 07:18:20;;;;;;;61.90;35.08;;;5.60;59.60;;;;;;9185723;19;20394;-66
2022/03/25 07:21:25;;;;;;;71.65;39.08;;;5.60;59.80;;;;;;9182938;19;20014;-64
2022/03/25 07:24:30;;;;;;;75.63;39.78;;;5.70;59.90;;;;;;9186334;19;20026;-68
2022/03/25 07:27:35;;;;;;;71.70;39.55;;;5.70;60.00;;;;;;9184910;19;20015;-65
2022/03/25 07:30:41;;;;;;;75.80;39.83;;;5.70;60.20;;;;;;9184583;19;20011;-66
2022/03/25 07:33:48;;;;;;;69.20;39.28;;;5.80;60.20;;;;;;9187240;19;20017;-65
2022/03/25 07:36:53;;;;;;;80.93;39.38;;;5.90;60.40;;;;;;9185822;19;20018;-66
2022/03/25 07:39:58;;;;;;;80.80;42.40;;;5.90;60.40;;;;;;9184591;19;20521;-65
2022/03/25 07:43:04;;;;;;;78.85;41.05;;;6.00;60.50;;;;;;9184151;19;20044;-67
2022/03/25 07:46:10;;;;;;;82.18;42.15;;;6.10;60.70;;;;;;9184418;19;20007;-65
2022/03/25 07:49:19;;;;;;;79.60;41.90;;;6.20;60.80;;;;;;9182123;19;20495;-67
2022/03/25 07:52:24;;;;;;;85.32;44.92;;;6.30;60.90;;;;;;9184195;19;20025;-66
2022/03/25 07:55:34;;;;;;;91.32;45.33;;;6.40;60.90;;;;;;9186689;19;20386;-66
2022/03/25 07:58:40;;;;;;;93.43;45.75;;;6.60;61.10;;;;;;9182969;19;20365;-66
2022/03/25 08:01:45;;;;;;;82.15;46.38;;;6.70;61.20;;;;;;9182679;19;20015;-66
2022/03/25 08:04:53;;;;;;;84.72;46.17;;;6.90;61.40;;;;;;9186472;19;20882;-65
2022/03/25 08:08:02;;;;;;;87.07;44.85;;;7.10;61.60;;;;;;9183946;19;20010;-66
2022/03/25 08:11:08;;;;;;;89.55;46.58;;;7.20;61.50;;;;;;9184552;19;20022;-68
2022/03/25 08:14:13;;;;;;;87.38;45.42;;;7.40;61.60;;;;;;9182852;19;20661;-65
2022/03/25 08:17:20;;;;;;;90.85;47.92;;;7.60;61.60;;;;;;9184276;19;20014;-66
2022/03/25 08:20:30;;;;;;;97.18;48.10;;;7.70;61.70;;;;;;9179752;19;20022;-66
2022/03/25 08:30:12;;;;;;;95.05;48.13;;;8.30;61.70;;;;;;9186046;19;20010;-66
2022/03/25 08:33:18;;;;;;;89.47;46.85;;;8.50;61.60;;;;;;9186389;19;20026;-66
2022/03/25 08:36:25;;;;;;;90.13;48.13;;;8.70;61.60;;;;;;9184721;19;20022;-66
2022/03/25 08:39:30;;;;;;;89.07;48.28;;;8.90;61.70;;;;;;9183936;19;20022;-66
2022/03/25 08:42:35;;;;;;;89.85;47.10;;;9.10;61.60;;;;;;9182790;19;20022;-67
2022/03/25 08:45:40;;;;;;;90.00;47.40;;;9.40;61.70;;;;;;9182372;19;20006;-66
2022/03/25 08:48:45;;;;;;;91.40;44.88;;;9.60;61.70;;;;;;9183840;19;20518;-66
2022/03/25 08:51:53;;;;;;;89.03;46.70;;;9.90;61.70;;;;;;9184884;19;20010;-67
2022/03/25 08:54:59;;;;;;;91.97;47.47;;;10.10;61.60;;;;;;9183564;19;20510;-66
2022/03/25 08:58:04;;;;;;;86.13;46.85;;;10.30;61.50;;;;;;9183339;19;20014;-66
2022/03/25 09:01:09;;;;;;;93.28;48.03;;;10.60;61.50;;;;;;9184149;19;20438;-66
2022/03/25 09:04:14;;;;;;;90.93;47.72;;;10.80;61.40;;;;;;9182533;19;20047;-64
2022/03/25 09:07:22;;;;;;;86.57;46.42;;;11.10;61.40;;;;;;9182487;19;20026;-70
2022/03/25 09:10:27;;;;;;;91.18;49.17;;;11.40;61.50;;;;;;9179668;19;20031;-67
2022/03/25 09:13:33;;;;;;;87.65;47.72;;;11.60;61.30;;;;;;9176784;19;20360;-69
2022/03/25 09:16:38;;;;;;;84.68;44.72;;;11.80;61.20;;;;;;9179691;19;20464;-71
2022/03/25 09:19:43;;;;;;;85.32;48.20;;;12.10;61.10;;;;;;9173859;19;21713;-70
2022/03/25 09:22:53;;;;;;;80.60;46.13;;;12.40;61.00;;;;;;9175790;19;20014;-69
2022/03/25 09:26:00;;;;;;;88.72;48.53;;;12.70;60.90;;;;;;9179584;19;20018;-69
2022/03/25 09:29:06;;;;;;;86.07;48.80;;;12.90;60.80;;;;;;9174115;19;20022;-69
2022/03/25 09:32:11;;;;;;;95.15;51.58;;;13.20;60.60;;;;;;9174177;19;20013;-69
2022/03/25 09:35:25;;;;;;;90.30;48.17;;;13.50;60.40;;;;;;9178216;19;20137;-69
2022/03/25 09:38:33;;;;;;;97.45;50.33;;;13.70;60.10;;;;;;9174569;19;20019;-70
2022/03/25 09:41:39;;;;;;;97.57;49.63;;;14.00;60.00;;;;;;9177639;19;20018;-69
2022/03/25 09:44:45;;;;;;;96.00;50.83;;;14.20;59.80;;;;;;9176678;19;20336;-69
2022/03/25 09:47:51;;;;;;;99.13;50.22;;;14.40;59.70;;;;;;9180671;19;20119;-69
2022/03/25 09:51:00;;;;;;;93.53;48.67;;;14.50;59.40;;;;;;9182487;19;20381;-70
2022/03/25 09:54:21;;;;;;;91.07;49.10;;;14.70;59.30;;;;;;9172771;19;20022;-68
2022/03/25 09:57:29;;;;;;;87.15;47.83;;;14.90;59.20;;;;;;9173051;19;20019;-69
2022/03/25 10:00:34;;;;;;;92.13;50.80;;;15.00;59.00;;;;;;9171101;19;20022;-68
2022/03/25 10:03:41;;;;;;;92.88;50.33;;;15.20;58.90;;;;;;9178202;19;20097;-67
2022/03/25 10:06:49;;;;;;;95.53;50.65;;;15.30;58.80;;;;;;9175966;19;20021;-68
2022/03/25 10:10:14;;;;;;;91.32;50.70;;;15.50;58.70;;;;;;9178030;19;20018;-68
2022/03/25 10:13:22;;;;;;;87.00;48.45;;;15.60;58.50;;;;;;9179711;19;20019;-69
2022/03/25 10:16:28;;;;;;;86.75;47.08;;;15.80;58.40;;;;;;9178577;19;20010;-69
2022/03/25 10:19:33;;;;;;;95.50;48.50;;;15.90;58.20;;;;;;9175131;19;20040;-67
2022/03/25 10:22:39;;;;;;;85.55;46.55;;;16.10;58.10;;;;;;9178979;19;20343;-67
2022/03/25 10:25:49;;;;;;;89.05;44.05;;;16.20;57.90;;;;;;9178569;19;20016;-67
2022/03/25 10:28:55;;;;;;;87.38;44.80;;;16.30;57.70;;;;;;9180061;19;20440;-64
2022/03/25 10:32:08;;;;;;;82.32;44.13;;;16.50;57.60;;;;;;9164501;19;20443;-65
2022/03/25 10:35:14;;;;;;;86.30;42.80;;;16.60;57.30;;;;;;9170999;19;20016;-65
2022/03/25 10:38:19;;;;;;;79.65;43.80;;;16.70;57.20;;;;;;9170953;19;20010;-66
2022/03/25 10:41:28;;;;;;;83.53;42.17;;;16.80;57.10;;;;;;9169059;19;20038;-66
2022/03/25 10:44:38;;;;;;;79.53;40.85;;;16.90;56.90;;;;;;9173396;19;20764;-69
2022/03/25 10:47:43;;;;;;;79.03;39.65;;;17.00;56.80;;;;;;9183343;19;20070;-66
2022/03/25 10:51:07;;;;;;;71.15;40.33;;;17.10;56.80;;;;;;9182552;19;20093;-66
2022/03/25 10:54:16;;;;;;;68.97;38.28;;;17.20;56.50;;;;;;9182822;19;20025;-65
2022/03/25 10:57:24;;;;;;;70.55;38.80;;;17.30;56.40;;;;;;9177704;19;20134;-65
2022/03/25 11:00:33;;;;;;;69.97;38.75;;;17.40;56.20;;;;;;9179578;19;20042;-65
2022/03/25 11:03:39;;;;;;;68.85;37.05;;;17.50;56.20;;;;;;9180896;19;20029;-68
2022/03/25 11:06:46;;;;;;;76.43;40.25;;;17.60;56.00;;;;;;9180512;19;20025;-66
2022/03/25 11:09:52;;;;;;;73.28;37.92;;;17.70;55.90;;;;;;9176076;19;20565;-65
2022/03/25 11:13:01;;;;;;;81.05;38.75;;;17.80;55.80;;;;;;9179326;19;20011;-66
2022/03/25 11:16:10;;;;;;;71.05;38.00;;;17.90;55.70;;;;;;9182075;19;20011;-66
2022/03/25 11:19:17;;;;;;;66.25;36.75;;;18.00;55.60;;;;;;9174662;19;20468;-66
2022/03/25 11:22:25;;;;;;;63.65;35.40;;;18.10;55.50;;;;;;9179854;19;20023;-66
2022/03/25 11:25:32;;;;;;;73.75;37.03;;;18.20;55.30;;;;;;9178039;19;20022;-66
2022/03/25 11:28:40;;;;;;;76.72;38.38;;;18.30;55.20;;;;;;9178641;19;20499;-66
2022/03/25 11:32:10;;;;;;;71.53;37.50;;;18.40;55.10;;;;;;9178806;19;20019;-66
2022/03/25 11:35:20;;;;;;;57.90;31.77;;;18.50;54.90;;;;;;9177607;19;20594;-66
2022/03/25 11:38:25;;;;;;;71.00;33.88;;;18.60;54.70;;;;;;9179649;19;20809;-66
2022/03/25 11:41:30;;;;;;;63.63;31.80;;;18.70;54.60;;;;;;9179839;19;20018;-65
2022/03/25 11:44:38;;;;;;;61.50;33.33;;;18.70;54.50;;;;;;9179180;19;20018;-65
2022/03/25 11:47:43;;;;;;;66.20;32.58;;;18.80;54.30;;;;;;9181764;19;20014;-66
2022/03/25 11:50:48;;;;;;;56.88;30.58;;;18.90;54.20;;;;;;9178654;19;20018;-67
2022/03/25 11:53:53;;;;;;;56.13;29.67;;;19.00;54.00;;;;;;9177550;19;20953;-67
2022/03/25 11:56:58;;;;;;;52.72;29.95;;;19.10;53.90;;;;;;9176642;19;20018;-67
2022/03/25 12:00:10;;;;;;;63.08;32.53;;;19.20;53.70;;;;;;9179438;19;20488;-67
2022/03/25 12:03:20;;;;;;;56.67;31.73;;;19.20;53.50;;;;;;9178360;19;20047;-67
2022/03/25 12:06:27;;;;;;;60.70;30.95;;;19.30;53.50;;;;;;9180074;19;20023;-67
2022/03/25 12:09:40;;;;;;;65.30;30.75;;;19.40;53.40;;;;;;9177948;19;20014;-67
2022/03/25 12:12:58;;;;;;;55.30;31.17;;;19.50;53.10;;;;;;9170383;19;20010;-67
2022/03/25 12:16:06;;;;;;;58.58;32.63;;;19.50;53.00;;;;;;9177887;19;20021;-66
2022/03/25 12:19:51;;;;;;;65.97;32.90;;;19.60;52.90;;;;;;9172722;19;20022;-67
2022/03/25 12:23:08;;;;;;;;;;;19.70;52.70;;;;;;9183503;19;20058;-67
2022/03/25 12:26:14;;;;;;;58.40;32.38;;;19.70;53.10;;;;;;9181249;19;20329;-67
2022/03/25 12:29:19;;;;;;;59.38;30.85;;;19.80;53.00;;;;;;9185583;19;20053;-67
2022/03/25 12:32:25;;;;;;;50.53;29.90;;;19.80;52.70;;;;;;9183759;19;20352;-67
2022/03/25 12:35:33;;;;;;;60.05;30.88;;;19.90;52.60;;;;;;9178323;19;20011;-67
2022/03/25 12:38:45;;;;;;;53.38;28.75;;;19.90;52.50;;;;;;9186424;19;20051;-67
2022/03/25 12:41:52;;;;;;;58.25;27.60;;;20.00;52.20;;;;;;9183860;19;20026;-67
2022/03/25 12:45:02;;;;;;;57.35;29.45;;;20.00;52.10;;;;;;9183584;19;20021;-68
2022/03/25 12:48:12;;;;;;;50.72;25.60;;;20.10;52.00;;;;;;9182808;19;20015;-67
2022/03/25 12:51:22;;;;;;;51.33;24.95;;;20.10;51.80;;;;;;9181229;19;20030;-68
2022/03/25 12:54:30;;;;;;;50.47;24.95;;;20.10;51.60;;;;;;9175730;19;20026;-67
2022/03/25 12:57:36;;;;;;;48.97;25.45;;;20.10;51.30;;;;;;9177362;19;20026;-67
2022/03/25 13:00:43;;;;;;;53.45;23.52;;;20.10;51.20;;;;;;9179770;19;20042;-68
2022/03/25 13:03:49;;;;;;;50.13;26.63;;;20.10;51.00;;;;;;9177444;19;20010;-70
2022/03/25 13:06:59;;;;;;;49.22;26.88;;;20.10;50.90;;;;;;9174362;19;20014;-71
2022/03/25 13:10:08;;;;;;;55.50;25.77;;;20.10;50.70;;;;;;9174550;19;20381;-70
2022/03/25 13:13:15;;;;;;;42.45;20.20;;;20.10;50.70;;;;;;9176987;19;20022;-71
2022/03/25 13:16:20;;;;;;;40.10;18.88;;;20.10;50.60;;;;;;9176357;19;20029;-70
2022/03/25 13:19:32;;;;;;;42.03;20.73;;;20.10;50.40;;;;;;9172306;19;20011;-69
2022/03/25 13:22:39;;;;;;;43.95;21.25;;;20.00;50.00;;;;;;9173094;19;20022;-70
2022/03/25 13:25:48;;;;;;;47.40;20.45;;;20.00;50.00;;;;;;9173341;19;20025;-70
2022/03/25 13:28:59;;;;;;;41.95;20.42;;;20.00;49.80;;;;;;9167503;19;20101;-69
2022/03/25 13:32:05;;;;;;;49.90;23.13;;;19.90;49.80;;;;;;9173547;19;20029;-69
2022/03/25 13:35:13;;;;;;;51.47;22.48;;;20.00;49.80;;;;;;9177406;19;20500;-69
2022/03/25 13:38:20;;;;;;;43.70;18.85;;;19.90;49.70;;;;;;9176031;19;20357;-70
2022/03/25 13:41:28;;;;;;;29.40;14.75;;;19.90;49.50;;;;;;9167595;19;20821;-70
2022/03/25 13:44:38;;;;;;;44.10;17.98;;;19.90;49.20;;;;;;9173215;19;20014;-69
2022/03/25 13:47:43;;;;;;;35.17;16.98;;;19.90;49.30;;;;;;9174430;19;20025;-70
2022/03/25 13:50:53;;;;;;;32.22;14.85;;;19.90;49.20;;;;;;9172542;19;20030;-69
2022/03/25 13:54:03;;;;;;;29.13;12.05;;;19.90;49.00;;;;;;9173340;19;20026;-70
2022/03/25 13:57:19;;;;;;;35.90;12.77;;;19.80;48.70;;;;;;9176185;19;20046;-70
2022/03/25 14:00:38;;;;;;;28.70;12.50;;;19.80;48.40;;;;;;9170649;19;20019;-70
2022/03/25 14:03:44;;;;;;;36.03;11.85;;;19.90;48.60;;;;;;9168383;19;20102;-70
2022/03/25 14:06:51;;;;;;;28.88;9.23;;;19.80;48.50;;;;;;9170703;19;20022;-70
2022/03/25 14:10:03;;;;;;;29.35;9.05;;;19.80;48.30;;;;;;9170914;19;20041;-70
2022/03/25 14:13:11;;;;;;;36.35;12.32;;;19.80;48.10;;;;;;9175983;19;20118;-71
2022/03/25 14:16:22;;;;;;;28.10;12.65;;;19.80;47.90;;;;;;9174624;19;20643;-71
2022/03/25 14:19:29;;;;;;;31.42;13.07;;;19.70;47.80;;;;;;9171602;19;20360;-71
2022/03/25 14:22:34;;;;;;;29.55;12.40;;;19.70;47.80;;;;;;9174059;19;20858;-71
2022/03/25 14:25:40;;;;;;;32.50;12.10;;;19.70;47.80;;;;;;9170871;19;20020;-70
2022/03/25 14:28:47;;;;;;;27.52;12.30;;;19.70;47.70;;;;;;9171172;19;20022;-70
2022/03/25 14:31:53;;;;;;;35.20;15.35;;;19.60;47.50;;;;;;9166002;19;20018;-66
2022/03/25 14:34:58;;;;;;;28.77;13.70;;;19.60;47.60;;;;;;9175197;19;20022;-67
2022/03/25 14:38:03;;;;;;;30.80;14.75;;;19.60;47.50;;;;;;9175519;19;20471;-67
2022/03/25 14:41:09;;;;;;;35.92;16.17;;;19.60;47.40;;;;;;9174250;19;20017;-67
2022/03/25 14:44:17;;;;;;;40.13;15.63;;;19.60;47.50;;;;;;9172959;19;20018;-68
2022/03/25 14:47:22;;;;;;;34.92;14.52;;;19.60;47.20;;;;;;9171682;19;20019;-66
2022/03/25 14:50:27;;;;;;;36.33;15.70;;;19.50;47.30;;;;;;9170443;19;20025;-66
2022/03/25 14:53:32;;;;;;;34.50;16.67;;;19.50;47.10;;;;;;9173528;19;20025;-66
2022/03/25 14:56:37;;;;;;;40.75;16.17;;;19.50;47.10;;;;;;9171745;19;20022;-66
2022/03/25 14:59:49;;;;;;;38.63;17.50;;;19.50;47.10;;;;;;9172976;19;20021;-67
2022/03/25 15:02:54;;;;;;;43.53;17.08;;;19.50;47.00;;;;;;9171988;19;20039;-66
2022/03/25 15:05:59;;;;;;;42.75;16.10;;;19.50;47.00;;;;;;9172146;19;20019;-67
2022/03/25 15:09:05;;;;;;;40.22;14.45;;;19.40;46.90;;;;;;9170344;19;20368;-67
2022/03/25 15:12:12;;;;;;;33.08;14.75;;;19.40;46.90;;;;;;9173175;19;20038;-67
2022/03/25 15:15:21;;;;;;;34.65;14.52;;;19.40;46.80;;;;;;9172131;19;20928;-66
2022/03/25 15:18:26;;;;;;;27.52;14.65;;;19.30;46.70;;;;;;9164882;19;20083;-65
2022/03/25 15:21:31;;;;;;;35.20;14.75;;;19.30;46.70;;;;;;9155796;19;20033;-64
2022/03/25 15:24:37;;;;;;;38.80;14.68;;;19.30;46.80;;;;;;9162552;19;20356;-65
2022/03/25 15:27:41;;;;;;;38.40;15.40;;;19.20;46.60;;;;;;9169078;19;20022;-65
2022/03/25 15:37:31;;;;;;;35.85;16.00;;;19.20;46.70;;;;;;9179766;19;20698;-66
2022/03/25 15:40:37;;;;;;;35.80;15.80;;;19.20;46.60;;;;;;9175039;19;20026;-65
2022/03/25 15:43:42;;;;;;;42.88;16.77;;;19.10;46.60;;;;;;9180160;19;20344;-63
2022/03/25 15:46:49;;;;;;;48.05;15.95;;;19.10;46.60;;;;;;9179093;19;20022;-64
2022/03/25 15:49:55;;;;;;;30.38;15.05;;;19.10;46.60;;;;;;9181677;19;20010;-64
2022/03/25 15:53:00;;;;;;;38.83;16.08;;;19.10;46.70;;;;;;9181737;19;20017;-65
2022/03/25 15:56:05;;;;;;;45.10;15.77;;;19.10;46.70;;;;;;9180992;19;20010;-64
2022/03/25 15:59:10;;;;;;;35.33;16.05;;;19.10;46.70;;;;;;9179115;19;20040;-64
2022/03/25 16:02:18;;;;;;;36.92;17.20;;;19.00;46.60;;;;;;9175753;19;20037;-64